Aktualne dane pomiarowe

Uwaga, wersja testowa! Automatyczne pobieranie danych za pomocą narzędzi lub skryptów to umożliwiających jest zabronione.

Dane meteo z obszaru Polski uzyskane na podstawie depesz SYNOP pobieranych co godzinę z NWS. Najedź myszką na symbol przedstawiony w tabeli, aby uzyskać informacje co do jego znaczenia. Prosimy pamiętać, że to testowa wersja strony, która jeszcze nie jest ukończona. Stworzono również jest krótki FAQ dotyczący korzystania z tej podstrony Anomalie temperatury w chwili obecnej odniesione są do okresu referencyjnego 1951-2016. Okres ten będzie później zmieniony na 1981-2010. Kliknij ikonę aby pobrać plik CSV. Kliknij ikonę aby wygenerować mapę synoptyczną dla danego terminu.

Wybierz Datę:    

        

Łódź (12465)

Dane terminowe dla wybranej stacji. Kliknij datę, aby otrzymać dane z tego terminu dla wszystkich stacji.

TemperaturaZachmurzenieWiatrCiśnienieOpadyPogoda
 Data t td wb tx tn tg rh  Nt Nl Cl Cm Ch ws wd g1 g2 wx mslp ppp ch 24h 12h t ww ww w1 w2  
2019-06-19 23:00:00 19.5 16.7 17.5--- 8420.0wx-wxwx1wx---1010.3 989.2 -0.4---------
2019-06-19 22:00:00 20.0 16.5 17.6--- 8020.0wx-wxwx2wx---1010.6 989.5 -0.7---------
2019-06-19 21:00:00 20.5 16.4 17.7--- 7720.0wx-wx2wx--21010.6 989.5 -1.4---wx-w1--
2019-06-19 20:00:00 20.5 15.8 17.3--- 7420.0wx-wxwx2wx--21010.7 989.6 0.4---wx---
2019-06-19 19:00:00 22.6 14.8 17.5--- 6120.0wxwxwxwx3wx--31011.1 990.2 1.1---wx-w1--
2019-06-19 18:00:00 22.0 15.9 17.9 30.5 21.9- 6820.0wxwxwxwx9wx-1591011.9 990.9 1.5--12wx-w1w2--
2019-06-19 17:00:00 27.6 16.0 20.1--- 4920.0wxwxwxwx2---21009.8 989.2 -0.8---------
2019-06-19 16:00:00 28.8 15.8 20.5--- 4520.0wxwxwxwxwx3---31009.6 989.1 -1.3---wx-w1--
2019-06-19 15:00:00 27.6 15.7 20.0--- 4820.0wxwxwx2wx---1010.0 989.4 -1.7---wx---
2019-06-19 14:00:00 28.9 14.4 19.8--- 4120.0wxwxwxwx1wx--11010.5 990.0 -1.6---------
2019-06-19 13:00:00 29.3 14.8 20.1--- 4120.0wxwxwx1wx--11010.9 990.4 -1.7---------
2019-06-19 12:00:00 28.3 15.0 19.9--- 4420.0wxwxwx3wx--31011.7 991.1 -1.4- 0.06------
2019-06-19 11:00:00 28.0 15.0 19.8--- 4520.0wxwxwxwx3wx--31012.2 991.6 -1.4---------
2019-06-19 10:00:00 27.6 16.3 20.3--- 5020.0wxwxwxwx3wx--31012.7 992.1 -1.3---------
2019-06-19 09:00:00 26.2 16.5 19.9--- 5520.0wxwxwxwx4wx--41013.2 992.5 -1.2---------
2019-06-19 08:00:00 25.2 17.5 20.0--- 6220.0wxwxwxwx3wx---1013.8 993.0 -0.9---------
2019-06-19 07:00:00 23.5 17.1 19.2--- 6720.0wxwxwxwx3wx--31014.3 993.4 -0.6---------
2019-06-19 06:00:00 22.6 16.5 18.5 23.9 17.0 15 6820.0wxwxwxwx3wx--31014.7 993.7 -0.4- 0.012----- 13.4
2019-06-19 05:00:00 20.7 16.0 17.5--- 7520.0wxwxwxwx2wx--21015.1 993.9 -0.5---------
2019-06-19 04:00:00 19.3 15.4 16.6--- 7820.0wxwxwx2wx--21015.3 994.0 -0.6---------
2019-06-19 03:00:00 18.5 15.0 16.1--- 8020.0wxwxwx2wx---1015.4 994.1 -0.9---------
2019-06-19 02:00:00 17.8 14.1 15.3--- 7920.0wxwxwx2wx--21015.8 994.4 -1.0---------
2019-06-19 01:00:00 18.2 13.9 15.3--- 7620.0wx-wx2wx--21016.0 994.6 -1.2---------
2019-06-19 00:00:00 18.1 13.6 15.1--- 7520.0wx-wx2wx--21016.4 995.0 -1.3- 0.06------
2019-06-18 23:00:00 17.2 13.5 14.7--- 7920.0wx-wxwx1wx--11016.8 995.4 -0.9---------
2019-06-18 22:00:00 17.6 13.9 15.1--- 7920.0wx-wxwx0----1017.2 995.8 -0.2---------
2019-06-18 21:00:00 18.0 13.3 14.9--- 7420.0wx-wxwx1wx--11017.7 996.3 0.5---------
2019-06-18 20:00:00 20.5 12.8 15.6--- 6120.0wx-wxwx1wx--11017.5 996.3 0.4---------
2019-06-18 19:00:00 22.4 12.7 16.4--- 5420.0wxwxwxwx2wx--21017.1 996.0 -0.2---------
2019-06-18 18:00:00 23.8 12.2 16.7 26.7 19.3- 4820.0wxwxwxwx3wx-831016.8 995.8 -0.8- 0.012------
2019-06-18 17:00:00 25.3 12.3 17.4--- 4420.0wxwxwxwx4wx---1016.8 995.9 -1.4---------
2019-06-18 16:00:00 25.8 12.0 17.4--- 4220.0wxwxwxwx4wx--41017.0 996.2 -1.6---------
2019-06-18 15:00:00 26.2 12.0 17.6--- 4120.0wxwxwxwx4wx---1017.4 996.6 -1.7---------
2019-06-18 14:00:00 25.6 12.5 17.6--- 4420.0wxwxwx3wx-831018.2 997.3 -1.4---------
2019-06-18 13:00:00 25.4 12.0 17.3--- 4320.0wxwxwxwx6wx--61018.7 997.8 -1.3---------
2019-06-18 12:00:00 24.7 12.1 17.0--- 4520.0wxwxwxwx3wx-831019.3 998.3 -1.3- 0.06------
2019-06-18 11:00:00 24.4 11.8 16.8--- 4520.0wxwxwxwx3wx--31019.7 998.7 -1.2---------
2019-06-18 10:00:00 24.6 12.6 17.2--- 4720.0wxwxwxwx4wx--41020.1 999.1 -1.0---------
2019-06-18 09:00:00 22.6 12.9 16.6--- 5420.0wxwxwxwx3wx--31020.7 999.6 -0.7---------
2019-06-18 08:00:00 21.8 13.0 16.3--- 5720.0wxwxwxwx3wx--31021.1 999.9 -0.3---------
2019-06-18 07:00:00 20.5 11.8 15.1--- 5720.0wx-wx3wx---1021.41000.1 0.1---------
2019-06-18 06:00:00 19.4 10.9 14.2 22.4 10.5 9 5820.0wx-wx4wx---1021.71000.3 0.3-------- 15.3
2019-06-18 05:00:00 18.1 10.5 13.4--- 6120.0wx-wx5wx--51021.71000.2 0.3---------
2019-06-18 04:00:00 13.5 11.7 12.2--- 8920.0wx-wx1---11021.81000.0 0.0---------
2019-06-18 03:00:00 11.2 10.1 10.4--- 9320.0wx-wx1---11022.01000.0 -0.2---------
2019-06-18 02:00:00 10.5 9.4 9.7--- 9320.0wx-wx0----1022.0 999.9 -0.4---------
2019-06-18 01:00:00 11.8 10.4 10.8--- 9120.0wx-wx0----1022.01000.0 -0.3---------
2019-06-18 00:00:00 12.5 10.7 11.3--- 8920.0wx-wx1wx--11022.11000.2 0.1- 0.06------
4.2 ms

 

Print Friendly, PDF & Email